Time;durP1;ratioP1;P1;durP2;ratioP2;P2;SDS_P1;SDS_P2;PMS_P1;PMS_P2;Temp;Humidity;BMP_temperature;BMP_pressure;BME280_temperature;BME280_humidity;BME280_pressure;Samples;Min_cycle;Max_cycle;Signal;HPM_P1;HPM_P2
2023/07/31 00:00:02;;;;;;;;;7.00;7.00;;;;;26.73;43.12;100157.34;146616;624;46016;-77
2023/07/31 00:02:59;;;;;;;;;6.67;6.33;;;;;26.77;41.85;100174.09;146620;611;47010;-81
2023/07/31 00:06:06;;;;;;;;;8.00;6.00;;;;;26.79;41.82;100167.81;146618;620;46016;-81
2023/07/31 00:09:04;;;;;;;;;7.33;6.67;;;;;26.80;41.17;100169.56;146620;591;47010;-76
2023/07/31 00:12:20;;;;;;;;;8.33;7.00;;;;;26.75;42.37;100168.78;146611;652;47012;-85
2023/07/31 00:15:27;;;;;;;;;8.50;7.25;;;;;26.70;41.94;100171.56;146616;569;46014;-82
2023/07/31 00:18:23;;;;;;;;;8.75;8.00;;;;;26.66;42.19;100159.25;146614;668;46016;-83
2023/07/31 00:21:26;;;;;;;;;7.33;6.33;;;;;26.65;43.21;100162.81;146619;570;46021;-81
2023/07/31 00:24:36;;;;;;;;;8.00;7.67;;;;;25.23;43.72;99921.59;146618;633;46017;-83
2023/07/31 00:27:47;;;;;;;;;;;;;;;;;;;;;
2023/07/31 00:30:50;;;;;;;;;7.33;7.33;;;;;26.60;43.73;100159.37;146615;653;46017;-82
2023/07/31 00:34:08;;;;;;;;;8.00;8.00;;;;;26.60;44.13;100156.72;146614;570;47020;-89
2023/07/31 00:37:31;;;;;;;;;8.75;8.75;;;;;26.63;44.19;100158.44;146618;641;46020;-83
2023/07/31 00:40:34;;;;;;;;;7.25;7.25;;;;;26.60;44.54;100151.41;146616;736;49010;-79
2023/07/31 00:43:40;;;;;;;;;6.33;6.00;;;;;26.59;45.10;100159.44;146614;574;46017;-75
2023/07/31 00:46:41;;;;;;;;;9.25;9.00;;;;;26.52;45.16;100150.72;146621;583;46020;-80
2023/07/31 00:49:55;;;;;;;;;;;;;;;;;;;;;
2023/07/31 00:52:56;;;;;;;;;10.00;9.00;;;;;26.37;46.08;100167.88;146623;581;47011;-82
2023/07/31 00:56:09;;;;;;;;;;;;;;;;;;;;;
2023/07/31 00:59:10;;;;;;;;;9.00;9.00;;;;;26.24;46.07;100159.28;146610;651;46037;-84
2023/07/31 01:02:28;;;;;;;;;8.00;8.00;;;;;26.29;46.59;100156.53;146614;563;46012;-79
2023/07/31 01:06:16;;;;;;;;;8.00;7.33;;;;;25.59;45.62;100044.69;146619;615;47020;-87
2023/07/31 01:10:02;;;;;;;;;7.50;7.25;;;;;24.72;45.80;99901.41;146615;686;46017;-77
2023/07/31 01:13:31;;;;;;;;;10.67;10.67;;;;;26.17;45.96;100156.81;146618;629;47040;-79
2023/07/31 01:16:41;;;;;;;;;7.67;7.67;;;;;26.18;46.00;100159.44;146612;574;46016;-83
2023/07/31 01:19:44;;;;;;;;;10.00;9.00;;;;;26.22;45.93;100161.09;146621;617;46014;-88
2023/07/31 01:23:26;;;;;;;;;10.67;10.67;;;;;26.29;45.84;100163.63;146615;577;46916;-85
2023/07/31 01:26:46;;;;;;;;;;;;;;;;;;;;;
2023/07/31 01:30:04;;;;;;;;;8.67;7.33;;;;;26.31;46.24;100157.38;146617;630;46016;-81
2023/07/31 01:33:39;;;;;;;;;;;;;;;;;;;;;
2023/07/31 01:36:39;;;;;;;;;7.00;6.33;;;;;26.13;46.75;100160.44;146611;569;47017;-84
2023/07/31 01:39:48;;;;;;;;;10.67;8.67;;;;;26.08;47.08;100157.03;146620;565;47010;-79
2023/07/31 01:42:45;;;;;;;;;8.00;8.00;;;;;26.06;47.66;100157.03;146618;600;46012;-78
2023/07/31 01:45:49;;;;;;;;;7.67;7.67;;;;;26.14;47.66;100167.53;146620;581;46010;-70
2023/07/31 01:48:44;;;;;;;;;7.67;7.00;;;;;26.22;47.52;100162.91;146615;602;46016;-78
2023/07/31 01:51:40;;;;;;;;;9.00;7.67;;;;;26.29;47.61;100158.31;146623;631;46011;-75
2023/07/31 01:54:33;;;;;;;;;6.33;6.33;;;;;26.33;47.25;100160.88;146611;581;47012;-84
2023/07/31 01:57:35;;;;;;;;;8.00;8.00;;;;;26.36;47.31;100160.81;146620;627;46020;-82
2023/07/31 02:00:38;;;;;;;;;9.67;9.00;;;;;26.29;46.79;100155.66;146616;612;46031;-79
2023/07/31 02:03:39;;;;;;;;;8.67;8.67;;;;;26.19;46.92;100153.19;146617;565;46020;-81
2023/07/31 02:06:44;;;;;;;;;7.67;6.00;;;;;26.08;47.03;100152.56;146611;599;46014;-81
2023/07/31 02:10:02;;;;;;;;;;;;;;;;;;;;;
2023/07/31 02:13:37;;;;;;;;;9.67;8.33;;;;;25.89;47.07;100149.44;146611;571;46017;-81
2023/07/31 02:16:49;;;;;;;;;;;;;;;;;;;;;
2023/07/31 02:19:57;;;;;;;;;9.33;7.33;;;;;25.94;46.50;100155.50;146608;563;47012;-82
2023/07/31 02:22:50;;;;;;;;;8.33;7.33;;;;;26.03;46.84;100151.78;146615;577;47010;-84
2023/07/31 02:25:54;;;;;;;;;9.00;8.33;;;;;26.10;46.71;100149.88;146613;590;46016;-81
2023/07/31 02:29:02;;;;;;;;;;;;;;;;;;;;;
2023/07/31 02:32:03;;;;;;;;;8.33;7.67;;;;;26.09;47.00;100146.34;146611;570;46014;-83
2023/07/31 02:35:15;;;;;;;;;7.67;7.00;;;;;26.07;46.93;100158.78;146605;574;46029;-86
2023/07/31 02:38:20;;;;;;;;;8.67;8.00;;;;;26.09;46.81;100150.78;146613;637;46029;-82
2023/07/31 02:41:31;;;;;;;;;8.67;8.67;;;;;26.04;48.02;100150.88;146615;564;47020;-84
2023/07/31 02:44:27;;;;;;;;;6.67;6.67;;;;;25.94;47.58;100155.50;146612;588;46016;-84
2023/07/31 02:47:29;;;;;;;;;10.00;9.33;;;;;25.90;47.00;100158.28;146615;577;46010;-77
2023/07/31 02:54:33;;;;;;;;;8.00;8.00;;;;;25.77;46.62;100161.16;146616;607;47010;-88
2023/07/31 02:57:47;;;;;;;;;;;;;;;;;;;;;
2023/07/31 03:01:09;;;;;;;;;7.67;7.67;;;;;25.68;45.77;100163.13;146615;632;46014;-87
2023/07/31 03:04:12;;;;;;;;;10.00;9.00;;;;;25.65;45.42;100163.16;146610;615;46016;-86
2023/07/31 03:07:07;;;;;;;;;6.67;6.67;;;;;25.64;44.41;100162.31;146601;615;47010;-85
2023/07/31 03:10:09;;;;;;;;;7.67;6.00;;;;;25.62;44.57;100168.53;146618;587;46016;-88
2023/07/31 03:13:08;;;;;;;;;8.00;7.33;;;;;25.61;44.61;100172.06;146618;572;46021;-87
2023/07/31 03:16:07;;;;;;;;;7.00;7.00;;;;;25.57;44.14;100182.75;146615;613;46016;-87
2023/07/31 03:19:09;;;;;;;;;10.25;10.25;;;;;25.51;44.61;100168.72;146617;634;47020;-85
2023/07/31 03:22:14;;;;;;;;;10.67;9.00;;;;;25.48;45.30;100174.09;146611;576;46016;-84
2023/07/31 03:25:33;;;;;;;;;10.75;8.25;;;;;25.49;45.61;100174.09;146618;710;46020;-85
2023/07/31 03:28:37;;;;;;;;;8.33;7.67;;;;;25.45;45.00;100179.47;146613;632;47016;-84
2023/07/31 03:31:36;;;;;;;;;9.33;9.00;;;;;25.37;45.29;100184.06;146620;575;46020;-83
2023/07/31 03:34:37;;;;;;;;;8.67;8.67;;;;;25.28;44.82;100179.78;146614;603;46017;-80
2023/07/31 03:37:42;;;;;;;;;8.33;7.33;;;;;25.22;44.34;100183.41;146614;644;46010;-80
2023/07/31 03:40:48;;;;;;;;;8.00;8.00;;;;;25.17;44.00;100181.72;146612;569;47012;-80
2023/07/31 03:43:56;;;;;;;;;;;;;;;;;;;;;
2023/07/31 03:47:11;;;;;;;;;9.00;8.25;;;;;25.04;45.47;100181.91;146613;632;47016;-80
2023/07/31 03:50:27;;;;;;;;;11.00;11.00;;;;;24.98;45.89;100182.00;146621;615;46011;-78
2023/07/31 03:53:28;;;;;;;;;7.33;7.33;;;;;24.94;45.95;100180.31;146609;618;47030;-78
2023/07/31 03:56:26;;;;;;;;;10.25;9.25;;;;;24.91;45.57;100185.66;146616;710;47014;-84
2023/07/31 03:59:39;;;;;;;;;9.75;9.50;;;;;24.92;45.44;100183.88;146612;601;46014;-78
2023/07/31 04:02:45;;;;;;;;;10.50;10.00;;;;;24.92;45.39;100178.59;146614;588;48010;-75
2023/07/31 04:05:54;;;;;;;;;7.00;6.33;;;;;24.94;45.92;100180.31;146610;583;47012;-79
2023/07/31 04:08:56;;;;;;;;;10.00;8.33;;;;;24.94;46.43;100182.09;146611;580;46020;-75
2023/07/31 04:12:06;;;;;;;;;9.33;9.33;;;;;24.98;46.20;100184.66;146618;681;46914;-76
2023/07/31 04:15:10;;;;;;;;;7.75;7.00;;;;;25.03;46.04;100185.47;146618;577;47020;-76
2023/07/31 04:18:17;;;;;;;;;8.00;7.00;;;;;23.64;46.23;99949.09;146618;644;47016;-79
2023/07/31 04:21:22;;;;;;;;;7.00;7.00;;;;;25.09;46.72;100200.41;146621;714;46020;-80
2023/07/31 04:24:23;;;;;;;;;7.00;7.00;;;;;25.18;45.97;100195.00;146607;571;46041;-82
2023/07/31 04:27:21;;;;;;;;;11.00;8.50;;;;;25.34;46.40;100196.47;146620;599;46021;-83
2023/07/31 04:30:30;;;;;;;;;9.50;8.50;;;;;24.01;45.36;99941.50;146613;626;46016;-79
2023/07/31 04:33:35;;;;;;;;;8.00;7.25;;;;;25.60;45.87;100208.38;146619;566;46020;-80
2023/07/31 04:36:35;;;;;;;;;9.00;8.00;;;;;25.73;46.04;100204.62;146618;586;46012;-75
2023/07/31 04:39:48;;;;;;;;;9.00;8.75;;;;;25.93;45.50;100214.00;146606;655;46020;-75
2023/07/31 04:42:53;;;;;;;;;11.75;10.00;;;;;24.77;45.31;99992.34;146610;595;47017;-76
2023/07/31 04:46:16;;;;;;;;;7.33;7.33;;;;;25.06;45.61;99993.56;146613;575;47020;-76
2023/07/31 04:49:11;;;;;;;;;7.00;7.00;;;;;26.70;44.58;100223.91;146610;592;48029;-76
2023/07/31 04:52:19;;;;;;;;;6.67;5.33;;;;;26.85;44.42;100214.66;146621;573;47020;-77
2023/07/31 04:55:18;;;;;;;;;7.67;6.67;;;;;26.97;45.05;100209.03;146615;595;47012;-77
2023/07/31 04:58:29;;;;;;;;;8.25;8.25;;;;;27.13;45.12;100206.87;146619;627;46020;-76
2023/07/31 05:01:32;;;;;;;;;10.00;9.00;;;;;25.96;45.84;99983.69;146616;646;46016;-77
2023/07/31 05:04:40;;;;;;;;;;;;;;;;;;;;;
2023/07/31 05:07:32;;;;;;;;;9.50;8.50;;;;;27.88;45.08;100210.25;146611;571;46016;-86
2023/07/31 05:10:40;;;;;;;;;;;;;;;;;;;;;
2023/07/31 05:13:36;;;;;;;;;9.25;9.25;;;;;28.48;44.50;100205.91;146615;584;47014;-83
2023/07/31 05:16:43;;;;;;;;;10.33;9.67;;;;;28.71;43.68;100207.81;146619;590;46020;-82
2023/07/31 05:19:49;;;;;;;;;;;;;;;;;;;;;
2023/07/31 05:22:52;;;;;;;;;8.75;8.75;;;;;28.28;42.72;100067.81;146619;563;47010;-83
2023/07/31 05:25:51;;;;;;;;;10.50;10.50;;;;;29.36;41.67;100217.28;146615;608;47016;-82
2023/07/31 05:29:16;;;;;;;;;;;;;;;;;;;;;
2023/07/31 22:13:55;;;;;;;;;6.00;6.00;;;;;27.10;57.93;100396.81;146707;565;45022;-80
2023/07/31 22:16:57;;;;;;;;;7.00;7.00;;;;;26.26;56.86;100238.97;146625;669;45943;-81
2023/07/31 22:19:58;;;;;;;;;6.33;6.33;;;;;27.25;57.92;100382.28;146630;587;46021;-78
2023/07/31 22:22:58;;;;;;;;;7.67;5.67;;;;;27.37;56.38;100394.44;146629;603;46014;-80
2023/07/31 22:25:51;;;;;;;;;6.67;5.33;;;;;27.42;57.49;100386.37;146631;617;45029;-81
2023/07/31 22:28:54;;;;;;;;;7.33;7.00;;;;;27.55;57.43;100394.00;146628;661;46012;-78
2023/07/31 22:32:05;;;;;;;;;6.00;6.00;;;;;27.64;56.85;100395.59;146631;621;45021;-83
2023/07/31 22:35:10;;;;;;;;;7.00;6.00;;;;;27.73;55.97;100386.50;146627;615;46012;-81
2023/07/31 22:38:21;;;;;;;;;8.33;6.67;;;;;27.72;55.94;100366.94;146632;672;46010;-89
2023/07/31 22:41:13;;;;;;;;;10.00;7.67;;;;;27.84;56.78;100372.00;146627;585;45915;-78
2023/07/31 22:44:11;;;;;;;;;5.33;5.33;;;;;27.84;56.03;100380.00;146632;606;45020;-77
2023/07/31 22:47:22;;;;;;;;;6.00;5.33;;;;;27.87;56.14;100374.59;146629;625;46016;-77
2023/07/31 22:50:36;;;;;;;;;6.33;6.00;;;;;27.91;56.63;100367.38;146629;570;46020;-77
2023/07/31 22:53:35;;;;;;;;;6.67;6.67;;;;;27.91;55.66;100367.38;146626;576;46913;-78
2023/07/31 22:56:55;;;;;;;;;7.00;7.00;;;;;27.90;56.13;100368.31;146629;610;46020;-78
2023/07/31 22:59:51;;;;;;;;;6.00;5.00;;;;;27.92;55.27;100358.50;146626;570;46012;-76
2023/07/31 23:03:02;;;;;;;;;;;;;;;;;;;;;
2023/07/31 23:06:14;;;;;;;;;8.33;6.00;;;;;28.02;54.16;100362.66;146624;575;46012;-79
2023/07/31 23:09:12;;;;;;;;;6.00;6.00;;;;;28.04;54.84;100355.50;146631;572;46020;-73
2023/07/31 23:12:28;;;;;;;;;6.33;6.33;;;;;28.07;53.83;100346.56;146624;595;46016;-78
2023/07/31 23:15:24;;;;;;;;;5.67;5.67;;;;;28.13;54.01;100341.06;146626;665;46010;-78
2023/07/31 23:18:43;;;;;;;;;7.67;6.67;;;;;27.42;53.38;100213.31;146622;581;45016;-77
2023/07/31 23:21:38;;;;;;;;;5.00;5.00;;;;;28.20;53.91;100350.66;146623;578;46014;-81
2023/07/31 23:24:35;;;;;;;;;8.67;7.67;;;;;28.22;53.62;100353.25;146622;572;46013;-79
2023/07/31 23:27:33;;;;;;;;;6.33;6.33;;;;;28.22;53.76;100356.78;146624;570;45020;-81
2023/07/31 23:30:44;;;;;;;;;;;;;;;;;;;;;
2023/07/31 23:34:01;;;;;;;;;9.00;7.67;;;;;28.25;53.63;100354.03;146625;566;46010;-83
2023/07/31 23:37:03;;;;;;;;;5.67;5.67;;;;;28.27;52.90;100354.00;146620;578;46012;-82
2023/07/31 23:39:58;;;;;;;;;7.00;7.00;;;;;28.21;52.70;100346.19;146621;582;47010;-76
2023/07/31 23:42:58;;;;;;;;;8.00;8.00;;;;;28.09;52.68;100332.25;146622;563;45913;-80
2023/07/31 23:45:58;;;;;;;;;9.00;7.00;;;;;28.07;53.13;100338.56;146624;611;45050;-81
2023/07/31 23:48:53;;;;;;;;;6.33;6.33;;;;;28.05;53.23;100338.59;146619;569;46014;-81
2023/07/31 23:51:47;;;;;;;;;6.00;6.00;;;;;28.05;53.35;100332.41;146623;571;46020;-79
2023/07/31 23:54:51;;;;;;;;;6.00;6.00;;;;;28.05;53.16;100327.06;146620;661;46915;-78
2023/07/31 23:58:05;;;;;;;;;6.67;6.67;;;;;28.02;52.74;100320.03;146625;611;46010;-76
